createdAt,value
2023-05-09T00:01:31.173Z,8.40
2023-05-09T00:03:59.870Z,8.15
2023-05-09T00:06:28.289Z,8.25
2023-05-09T00:08:55.732Z,8.18
2023-05-09T00:11:22.934Z,9.70
2023-05-09T00:13:50.638Z,10.32
2023-05-09T00:16:18.572Z,12.00
2023-05-09T00:18:47.427Z,10.15
2023-05-09T00:21:13.912Z,9.77
2023-05-09T00:23:40.968Z,10.57
2023-05-09T00:26:07.988Z,11.25
2023-05-09T00:28:34.504Z,12.30
2023-05-09T00:31:01.061Z,11.52
2023-05-09T00:33:27.593Z,10.60
2023-05-09T00:35:55.352Z,11.32
2023-05-09T00:38:23.329Z,11.98
2023-05-09T00:40:50.315Z,11.93
2023-05-09T00:43:17.253Z,12.75
2023-05-09T00:45:45.576Z,11.45
2023-05-09T00:48:12.224Z,12.07
2023-05-09T00:50:38.889Z,13.27
2023-05-09T00:53:05.713Z,13.38
2023-05-09T00:57:58.980Z,11.85
2023-05-09T01:00:27.972Z,11.00
2023-05-09T01:02:56.559Z,11.88
2023-05-09T01:05:29.288Z,11.32
2023-05-09T01:08:03.133Z,10.73
2023-05-09T01:10:39.324Z,11.75
2023-05-09T01:13:21.805Z,10.77
2023-05-09T01:15:51.155Z,12.68
2023-05-09T01:18:33.064Z,11.02
2023-05-09T01:21:05.239Z,11.68
2023-05-09T01:23:44.077Z,11.13
2023-05-09T01:26:36.383Z,11.95
2023-05-09T01:29:24.515Z,14.25
2023-05-09T01:31:53.329Z,10.40
2023-05-09T01:34:25.041Z,12.57
2023-05-09T01:36:53.882Z,12.50
2023-05-09T01:39:23.502Z,11.20
2023-05-09T01:41:53.406Z,10.70
2023-05-09T01:44:22.040Z,14.63
2023-05-09T01:46:50.406Z,12.23
2023-05-09T01:49:18.234Z,11.65
2023-05-09T01:51:45.057Z,11.40
2023-05-09T01:54:12.666Z,12.07
2023-05-09T01:56:43.171Z,13.35
2023-05-09T01:59:15.848Z,10.52
2023-05-09T02:01:44.608Z,10.82
2023-05-09T02:04:12.790Z,9.88
2023-05-09T02:06:40.887Z,10.00
2023-05-09T02:09:08.365Z,12.20
2023-05-09T02:11:35.138Z,11.60
2023-05-09T02:14:02.068Z,11.30
2023-05-09T02:16:30.043Z,12.32
2023-05-09T02:18:57.146Z,10.82
2023-05-09T02:21:25.153Z,11.43
2023-05-09T02:23:53.533Z,14.77
2023-05-09T02:26:20.634Z,14.15
2023-05-09T02:28:47.642Z,13.75
2023-05-09T02:31:15.003Z,11.18
2023-05-09T02:33:42.972Z,12.48
2023-05-09T02:36:10.449Z,12.35
2023-05-09T02:38:37.977Z,15.13
2023-05-09T02:41:04.566Z,13.60
2023-05-09T02:43:31.765Z,13.02
2023-05-09T02:45:58.763Z,13.20
2023-05-09T02:48:27.532Z,13.80
2023-05-09T02:50:54.199Z,13.13
2023-05-09T02:53:20.834Z,14.18
2023-05-09T02:55:47.290Z,12.27
2023-05-09T02:58:15.100Z,11.38
2023-05-09T03:00:42.586Z,17.27
2023-05-09T03:03:11.262Z,13.13
2023-05-09T03:05:37.953Z,15.52
2023-05-09T03:08:05.252Z,13.30
2023-05-09T03:10:31.792Z,13.75
2023-05-09T03:15:25.283Z,13.10
2023-05-09T03:17:51.763Z,14.82
2023-05-09T03:20:18.869Z,13.45
2023-05-09T03:22:45.764Z,12.32
2023-05-09T03:25:12.791Z,12.82
2023-05-09T03:27:40.510Z,13.32
2023-05-09T03:30:09.348Z,14.90
2023-05-09T03:32:36.610Z,12.45
2023-05-09T03:37:29.941Z,11.85
2023-05-09T03:39:57.128Z,11.65
2023-05-09T03:42:23.761Z,10.88
2023-05-09T03:44:51.049Z,10.98
2023-05-09T03:47:17.434Z,11.30
2023-05-09T03:49:43.855Z,12.00
2023-05-09T03:52:11.206Z,10.70
2023-05-09T03:54:37.888Z,11.88
2023-05-09T03:57:04.428Z,11.73
2023-05-09T03:59:30.883Z,13.25
2023-05-09T04:01:58.177Z,11.98
2023-05-09T04:04:25.603Z,12.63
2023-05-09T04:06:53.086Z,11.05
2023-05-09T04:11:46.667Z,10.75
2023-05-09T04:14:13.250Z,10.98
2023-05-09T04:16:39.974Z,12.20
2023-05-09T04:19:07.248Z,13.02
2023-05-09T04:21:33.990Z,11.48
2023-05-09T04:26:27.170Z,10.85
2023-05-09T04:31:20.433Z,13.05
2023-05-09T04:33:47.014Z,11.85
2023-05-09T04:36:13.454Z,13.10
2023-05-09T04:41:08.161Z,12.07
2023-05-09T04:43:35.060Z,11.90
2023-05-09T04:46:02.541Z,11.05
2023-05-09T04:48:29.259Z,11.50
2023-05-09T04:50:56.340Z,12.02
2023-05-09T04:53:23.580Z,12.90
2023-05-09T04:55:51.931Z,11.43
2023-05-09T04:58:18.970Z,11.30
2023-05-09T05:03:13.678Z,8.90
2023-05-09T05:08:08.021Z,10.60
2023-05-09T05:10:34.755Z,11.50
2023-05-09T05:13:01.992Z,10.57
2023-05-09T05:15:28.421Z,9.35
2023-05-09T05:17:55.109Z,10.60
2023-05-09T05:20:21.918Z,12.05
2023-05-09T05:25:16.073Z,12.32
2023-05-09T05:27:42.943Z,12.23
2023-05-09T05:30:09.895Z,11.85
2023-05-09T05:32:36.793Z,10.57
2023-05-09T05:37:31.797Z,10.57
2023-05-09T05:39:58.924Z,10.57
2023-05-09T05:42:25.435Z,11.93
2023-05-09T05:44:52.396Z,12.38
2023-05-09T05:49:47.233Z,10.85
2023-05-09T05:52:14.630Z,11.98
2023-05-09T05:54:41.365Z,10.68
2023-05-09T05:57:08.183Z,12.27
2023-05-09T05:59:34.805Z,11.45
2023-05-09T06:02:01.242Z,11.02
2023-05-09T06:04:28.978Z,10.68
2023-05-09T06:06:55.898Z,11.32
2023-05-09T06:09:24.121Z,12.00
2023-05-09T06:11:50.912Z,10.43
2023-05-09T06:14:17.450Z,12.50
2023-05-09T06:16:44.490Z,14.40
2023-05-09T06:21:37.496Z,9.95
2023-05-09T06:24:11.943Z,9.63
2023-05-09T06:26:43.502Z,10.48
2023-05-09T06:29:11.420Z,9.98
2023-05-09T06:31:39.103Z,9.40
2023-05-09T06:34:07.598Z,9.15
2023-05-09T06:36:35.397Z,9.27
2023-05-09T06:39:02.873Z,9.63
2023-05-09T06:41:29.558Z,7.93
2023-05-09T06:43:56.166Z,8.20
2023-05-09T06:46:22.965Z,8.10
2023-05-09T06:48:49.815Z,7.47
2023-05-09T06:51:16.889Z,8.30
2023-05-09T06:53:43.701Z,8.55
2023-05-09T06:56:10.625Z,7.43
2023-05-09T06:58:37.563Z,7.97
2023-05-09T07:01:05.223Z,8.25
2023-05-09T07:03:31.987Z,7.38
2023-05-09T07:05:58.834Z,7.22
2023-05-09T07:08:26.570Z,6.82
2023-05-09T07:10:53.342Z,6.97
2023-05-09T07:15:46.746Z,6.28
2023-05-09T07:18:13.673Z,6.95
2023-05-09T07:20:41.120Z,6.63
2023-05-09T07:23:08.327Z,6.57
2023-05-09T07:25:35.046Z,6.72
2023-05-09T07:28:01.885Z,6.50
2023-05-09T07:32:55.065Z,5.82
2023-05-09T07:37:48.336Z,5.88
2023-05-09T07:40:15.545Z,5.90
2023-05-09T07:42:46.084Z,6.15
2023-05-09T07:45:13.582Z,5.43
2023-05-09T07:47:40.843Z,5.43
2023-05-09T07:50:08.006Z,5.90
2023-05-09T07:52:35.286Z,6.60
2023-05-09T07:55:01.849Z,6.00
2023-05-09T07:57:28.638Z,5.22
2023-05-09T07:59:55.314Z,5.38
2023-05-09T08:02:21.953Z,5.10
2023-05-09T08:04:49.205Z,5.85
2023-05-09T08:07:16.361Z,5.55
2023-05-09T08:09:43.143Z,5.30
2023-05-09T08:12:09.617Z,4.78
2023-05-09T08:17:04.558Z,4.90
2023-05-09T08:19:31.377Z,5.20
2023-05-09T08:24:24.780Z,3.90
2023-05-09T08:26:52.927Z,3.88
2023-05-09T08:29:19.446Z,4.35
2023-05-09T08:31:46.244Z,4.47
2023-05-09T08:34:14.810Z,3.85
2023-05-09T08:36:41.483Z,4.47
2023-05-09T08:39:09.560Z,3.72
2023-05-09T08:41:36.997Z,3.60
2023-05-09T08:44:04.531Z,3.95
2023-05-09T08:46:35.980Z,3.10
2023-05-09T08:49:07.168Z,3.67
2023-05-09T08:51:35.850Z,2.97
2023-05-09T08:54:03.342Z,3.25
2023-05-09T08:56:30.921Z,3.42
2023-05-09T08:58:58.915Z,3.50
2023-05-09T09:01:26.792Z,2.65
2023-05-09T09:03:54.022Z,2.30
2023-05-09T09:06:21.807Z,2.65
2023-05-09T09:08:49.966Z,3.22
2023-05-09T09:11:17.236Z,4.32
2023-05-09T09:13:46.533Z,4.32
2023-05-09T09:16:20.600Z,4.30
2023-05-09T09:18:47.954Z,4.35
2023-05-09T09:21:17.755Z,4.90
2023-05-09T09:23:47.445Z,4.70
2023-05-09T09:26:14.306Z,3.60
2023-05-09T09:28:41.590Z,3.50
2023-05-09T09:31:22.109Z,3.72
2023-05-09T09:33:49.421Z,3.65
2023-05-09T09:36:16.225Z,3.17
2023-05-09T09:38:43.871Z,3.20
2023-05-09T09:41:12.598Z,3.55
2023-05-09T09:43:46.053Z,3.13
2023-05-09T09:46:14.229Z,3.45
2023-05-09T09:48:50.318Z,3.35
2023-05-09T09:51:18.355Z,3.00
2023-05-09T09:53:45.487Z,3.75
2023-05-09T09:56:12.369Z,3.90
2023-05-09T09:58:39.396Z,3.85
2023-05-09T10:01:20.761Z,2.70
2023-05-09T10:03:48.074Z,2.80
2023-05-09T10:06:16.516Z,2.63
2023-05-09T10:08:51.916Z,2.63
2023-05-09T10:11:18.487Z,2.83
2023-05-09T10:13:46.309Z,2.65
2023-05-09T10:16:13.895Z,2.72
2023-05-09T10:18:47.353Z,2.72
2023-05-09T10:21:15.823Z,2.85
2023-05-09T10:23:47.093Z,2.42
2023-05-09T10:26:30.844Z,2.85
2023-05-09T10:29:01.145Z,2.17
2023-05-09T10:31:31.370Z,2.22
2023-05-09T10:34:05.271Z,2.17
2023-05-09T10:36:32.538Z,2.63
2023-05-09T10:39:00.058Z,2.53
2023-05-09T10:41:26.868Z,2.05
2023-05-09T10:43:57.097Z,2.03
2023-05-09T10:46:24.330Z,2.03
2023-05-09T10:48:51.129Z,2.00
2023-05-09T10:51:18.300Z,2.95
2023-05-09T10:53:49.654Z,2.60
2023-05-09T10:56:33.302Z,2.97
2023-05-09T10:59:00.664Z,2.67
2023-05-09T11:01:34.630Z,2.58
2023-05-09T11:04:09.016Z,2.65
2023-05-09T11:06:49.398Z,3.08
2023-05-09T11:09:41.224Z,2.50
2023-05-09T11:12:19.278Z,3.03
2023-05-09T11:14:51.749Z,3.17
2023-05-09T11:17:29.789Z,3.20
2023-05-09T11:20:01.464Z,2.90
2023-05-09T11:22:32.231Z,4.07
2023-05-09T11:25:00.437Z,3.30
2023-05-09T11:27:28.481Z,2.95
2023-05-09T11:29:58.752Z,3.53
2023-05-09T11:32:31.832Z,3.20
2023-05-09T11:35:10.169Z,3.05
2023-05-09T11:38:01.856Z,2.88
2023-05-09T11:40:30.075Z,3.30
2023-05-09T11:42:58.815Z,3.40
2023-05-09T11:45:29.413Z,2.92
2023-05-09T11:47:57.257Z,3.70
2023-05-09T11:50:24.771Z,2.70
2023-05-09T11:52:54.048Z,3.20
2023-05-09T11:55:29.882Z,3.88
2023-05-09T11:57:56.980Z,3.42
2023-05-09T12:00:24.901Z,3.50
2023-05-09T12:02:52.610Z,4.43
2023-05-09T12:05:22.728Z,3.60
2023-05-09T12:07:49.474Z,3.10
2023-05-09T12:10:21.321Z,3.97
2023-05-09T12:12:49.949Z,3.08
2023-05-09T12:15:17.547Z,3.72
2023-05-09T12:17:46.761Z,3.38
2023-05-09T12:20:14.557Z,3.15
2023-05-09T12:22:44.998Z,2.95
2023-05-09T12:25:12.382Z,3.15
2023-05-09T12:27:41.770Z,3.20
2023-05-09T12:30:14.084Z,3.28
2023-05-09T12:32:41.788Z,3.17
2023-05-09T12:35:10.187Z,3.00
2023-05-09T12:37:37.116Z,2.63
2023-05-09T12:42:36.241Z,2.47
2023-05-09T12:45:04.797Z,2.63
2023-05-09T12:47:32.427Z,2.40
2023-05-09T12:50:05.226Z,2.25
2023-05-09T12:52:58.609Z,2.05
2023-05-09T12:55:28.679Z,2.33
2023-05-09T12:58:03.368Z,1.77
2023-05-09T13:00:42.315Z,2.78
2023-05-09T13:03:31.142Z,2.60
2023-05-09T13:06:00.729Z,1.52
2023-05-09T13:08:28.844Z,1.77
2023-05-09T13:11:04.071Z,1.45
2023-05-09T13:13:42.377Z,1.67
2023-05-09T13:16:10.701Z,1.77
2023-05-09T13:18:39.086Z,1.77
2023-05-09T13:21:06.214Z,2.47
2023-05-09T13:23:32.835Z,2.10
2023-05-09T13:25:59.434Z,2.42
2023-05-09T13:28:26.117Z,2.40
2023-05-09T13:30:52.780Z,2.83
2023-05-09T13:33:25.768Z,2.10
2023-05-09T13:35:53.291Z,2.60
2023-05-09T13:38:21.736Z,2.70
2023-05-09T13:40:48.299Z,2.83
2023-05-09T13:43:15.105Z,2.53
2023-05-09T13:45:41.854Z,2.78
2023-05-09T13:48:09.419Z,2.70
2023-05-09T13:50:37.019Z,2.95
2023-05-09T13:53:03.634Z,3.10
2023-05-09T13:55:30.765Z,2.78
2023-05-09T13:57:57.492Z,2.53
2023-05-09T14:00:27.345Z,2.60
2023-05-09T14:02:54.425Z,2.67
2023-05-09T14:05:21.004Z,2.38
2023-05-09T14:07:48.280Z,2.47
2023-05-09T14:10:14.981Z,2.60
2023-05-09T14:12:44.348Z,2.83
2023-05-09T14:15:11.348Z,2.95
2023-05-09T14:17:38.188Z,2.83
2023-05-09T14:20:06.445Z,2.63
2023-05-09T14:22:33.155Z,2.88
2023-05-09T14:25:00.253Z,3.20
2023-05-09T14:27:27.282Z,3.33
2023-05-09T14:29:53.788Z,3.13
2023-05-09T14:34:49.656Z,3.08
2023-05-09T14:37:17.662Z,3.97
2023-05-09T14:39:48.324Z,3.33
2023-05-09T14:42:16.586Z,3.55
2023-05-09T14:44:45.816Z,3.50
2023-05-09T14:47:13.148Z,3.38
2023-05-09T14:49:40.035Z,2.75
2023-05-09T14:52:06.802Z,4.07
2023-05-09T14:54:33.432Z,4.63
2023-05-09T14:57:01.973Z,4.63
2023-05-09T14:59:28.564Z,4.72
2023-05-09T15:04:21.704Z,4.30
2023-05-09T15:06:48.255Z,4.38
2023-05-09T15:11:48.193Z,4.00
2023-05-09T15:14:16.516Z,4.25
2023-05-09T15:16:43.382Z,4.03
2023-05-09T15:19:10.039Z,3.45
2023-05-09T15:21:36.684Z,2.83
2023-05-09T15:24:04.766Z,2.53
2023-05-09T15:26:32.044Z,2.67
2023-05-09T15:28:59.526Z,2.22
2023-05-09T15:31:26.281Z,2.22
2023-05-09T15:33:53.008Z,2.30
2023-05-09T15:36:19.550Z,2.60
2023-05-09T15:38:49.147Z,2.85
2023-05-09T15:41:16.384Z,2.92
2023-05-09T15:43:43.258Z,2.80
2023-05-09T15:48:38.436Z,2.92
2023-05-09T15:51:05.425Z,2.80
2023-05-09T15:53:32.306Z,2.67
2023-05-09T15:58:25.242Z,2.67
2023-05-09T16:03:18.923Z,2.40
2023-05-09T16:05:46.107Z,2.88
2023-05-09T16:08:12.803Z,3.53
2023-05-09T16:10:39.607Z,2.88
2023-05-09T16:13:07.250Z,3.83
2023-05-09T16:15:34.036Z,3.30
2023-05-09T16:20:27.221Z,3.10
2023-05-09T16:22:54.157Z,2.60
2023-05-09T16:25:20.571Z,2.65
2023-05-09T16:27:47.436Z,2.90
2023-05-09T16:30:15.062Z,3.10
2023-05-09T16:32:42.604Z,2.78
2023-05-09T16:35:09.572Z,3.47
2023-05-09T16:37:36.545Z,3.00
2023-05-09T16:42:31.251Z,3.35
2023-05-09T16:47:25.026Z,2.67
2023-05-09T16:49:51.930Z,2.75
2023-05-09T16:52:18.410Z,3.53
2023-05-09T16:54:45.514Z,3.33
2023-05-09T16:59:39.634Z,3.00
2023-05-09T17:04:34.688Z,3.83
2023-05-09T17:07:02.772Z,3.55
2023-05-09T17:09:30.149Z,3.70
2023-05-09T17:11:56.783Z,4.40
2023-05-09T17:14:23.596Z,4.20
2023-05-09T17:16:50.211Z,4.47
2023-05-09T17:19:17.241Z,4.38
2023-05-09T17:21:44.158Z,4.75
2023-05-09T17:24:10.970Z,4.90
2023-05-09T17:29:05.743Z,4.63
2023-05-09T17:31:32.477Z,4.00
2023-05-09T17:33:59.357Z,4.50
2023-05-09T17:36:25.992Z,3.88
2023-05-09T17:38:52.854Z,4.35
2023-05-09T17:41:19.395Z,4.10
2023-05-09T17:43:46.984Z,4.13
2023-05-09T17:46:14.896Z,3.80
2023-05-09T17:48:41.946Z,5.53
2023-05-09T17:51:08.564Z,4.78
2023-05-09T17:56:02.136Z,4.53
2023-05-09T17:58:29.879Z,4.10
2023-05-09T18:00:58.482Z,5.03
2023-05-09T18:03:27.574Z,5.35
2023-05-09T18:05:54.453Z,4.40
2023-05-09T18:10:47.619Z,4.20
2023-05-09T18:13:14.609Z,4.20
2023-05-09T18:18:08.250Z,3.92
2023-05-09T18:20:34.793Z,4.32
2023-05-09T18:23:01.768Z,4.07
2023-05-09T18:25:28.514Z,3.88
2023-05-09T18:27:56.401Z,3.80
2023-05-09T18:30:22.888Z,3.65
2023-05-09T18:32:49.527Z,3.40
2023-05-09T18:35:16.326Z,3.20
2023-05-09T18:37:42.960Z,4.00
2023-05-09T18:40:14.964Z,4.03
2023-05-09T18:42:42.129Z,3.55
2023-05-09T18:45:10.069Z,3.63
2023-05-09T18:47:37.379Z,3.72
2023-05-09T18:50:05.712Z,3.80
2023-05-09T18:52:34.140Z,4.13
2023-05-09T18:55:00.642Z,3.50
2023-05-09T18:59:55.013Z,3.63
2023-05-09T19:02:22.341Z,3.58
2023-05-09T19:04:50.387Z,3.40
2023-05-09T19:07:17.016Z,3.50
2023-05-09T19:09:43.747Z,4.10
2023-05-09T19:12:10.209Z,4.40
2023-05-09T19:17:05.658Z,4.35
2023-05-09T19:19:32.437Z,4.63
2023-05-09T19:22:01.427Z,5.43
2023-05-09T19:24:28.484Z,4.22
2023-05-09T19:26:55.100Z,3.92
2023-05-09T19:29:22.911Z,3.67
2023-05-09T19:31:49.381Z,3.35
2023-05-09T19:34:15.913Z,3.40
2023-05-09T19:36:42.602Z,3.35
2023-05-09T19:39:10.621Z,3.05
2023-05-09T19:41:37.090Z,4.00
2023-05-09T19:44:03.858Z,2.95
2023-05-09T19:46:30.691Z,2.80
2023-05-09T19:48:57.513Z,3.63
2023-05-09T19:51:24.052Z,2.22
2023-05-09T19:56:17.217Z,1.88
2023-05-09T19:58:43.717Z,1.25
2023-05-09T20:01:10.339Z,0.93
2023-05-09T20:03:38.387Z,1.02
2023-05-09T20:06:05.737Z,0.32
2023-05-09T20:08:32.827Z,0.43
2023-05-09T20:11:00.227Z,0.40
2023-05-09T20:13:27.717Z,0.40
2023-05-09T20:15:55.091Z,0.50
2023-05-09T20:18:22.466Z,0.40
2023-05-09T20:20:49.510Z,0.30
2023-05-09T20:23:16.877Z,0.70
2023-05-09T20:25:43.299Z,0.38
2023-05-09T20:30:38.803Z,0.30
2023-05-09T20:33:05.556Z,0.40
2023-05-09T20:35:33.804Z,0.38
2023-05-09T20:38:00.648Z,0.30
2023-05-09T20:40:27.150Z,0.10
2023-05-09T20:45:20.557Z,0.45
2023-05-09T20:47:47.660Z,0.38
2023-05-09T20:50:14.428Z,0.38
2023-05-09T20:52:41.080Z,0.20
2023-05-09T20:55:08.007Z,0.20
2023-05-09T20:57:34.552Z,0.20
2023-05-09T21:00:01.087Z,0.43
2023-05-09T21:02:28.089Z,0.43
2023-05-09T21:04:55.125Z,0.52
2023-05-09T21:09:49.130Z,0.30
2023-05-09T21:12:15.947Z,0.10
2023-05-09T21:17:09.523Z,0.10
2023-05-09T21:19:36.429Z,0.10
2023-05-09T21:22:03.416Z,0.10
2023-05-09T21:24:30.239Z,0.20
2023-05-09T21:26:56.872Z,0.10
2023-05-09T21:29:23.642Z,0.00
2023-05-09T21:31:50.529Z,0.10
2023-05-09T21:34:17.139Z,0.05
2023-05-09T21:39:10.454Z,0.10
2023-05-09T21:41:38.421Z,0.10
2023-05-09T21:44:05.520Z,0.10
2023-05-09T21:46:33.203Z,0.10
2023-05-09T21:49:01.344Z,0.10
2023-05-09T21:51:28.623Z,0.10
2023-05-09T21:53:55.505Z,0.20
2023-05-09T21:56:22.791Z,0.00
2023-05-09T21:58:49.933Z,0.13
2023-05-09T22:01:18.433Z,0.17
2023-05-09T22:03:45.739Z,0.68
2023-05-09T22:06:13.367Z,0.00
2023-05-09T22:08:40.186Z,0.00
2023-05-09T22:11:07.626Z,0.10
2023-05-09T22:13:35.789Z,0.10
2023-05-09T22:16:03.795Z,0.20
2023-05-09T22:18:31.491Z,0.30
2023-05-09T22:20:57.994Z,0.10
2023-05-09T22:25:51.416Z,0.20
2023-05-09T22:28:17.911Z,0.08
2023-05-09T22:30:44.482Z,0.20
2023-05-09T22:35:38.245Z,0.10
2023-05-09T22:38:04.775Z,0.00
2023-05-09T22:42:58.483Z,0.15
2023-05-09T22:45:24.964Z,0.30
2023-05-09T22:47:52.089Z,0.10
2023-05-09T22:50:18.988Z,0.20
2023-05-09T22:52:46.090Z,0.10
2023-05-09T22:55:13.136Z,0.17
2023-05-09T23:00:07.686Z,0.10
2023-05-09T23:02:34.244Z,0.38
2023-05-09T23:05:00.793Z,0.10
2023-05-09T23:07:27.317Z,0.30
2023-05-09T23:09:53.892Z,0.10
2023-05-09T23:12:20.539Z,0.20
2023-05-09T23:14:46.933Z,0.10
2023-05-09T23:17:13.663Z,0.10
2023-05-09T23:19:40.842Z,0.30
2023-05-09T23:22:07.304Z,0.00
2023-05-09T23:24:34.411Z,0.10
2023-05-09T23:27:02.488Z,0.10
2023-05-09T23:29:29.068Z,0.15
2023-05-09T23:34:22.044Z,0.00
2023-05-09T23:36:48.719Z,0.10
2023-05-09T23:41:42.238Z,0.20
2023-05-09T23:44:08.951Z,0.10
2023-05-09T23:46:35.564Z,0.10
2023-05-09T23:49:02.556Z,0.10
2023-05-09T23:51:29.017Z,0.10
2023-05-09T23:53:55.718Z,0.30
2023-05-09T23:56:22.387Z,0.00
2023-05-09T23:58:48.911Z,0.10
